sensor_id;sensor_type;location;lat;lon;timestamp;temperature;humidity
27896;DHT22;15241;48.374;10.876;2023-04-01T00:03:16;8.90;99.90
27896;DHT22;15241;48.374;10.876;2023-04-01T00:08:15;8.90;99.90
27896;DHT22;15241;48.374;10.876;2023-04-01T00:13:14;8.90;99.90
27896;DHT22;15241;48.374;10.876;2023-04-01T00:18:13;9.00;99.90
27896;DHT22;15241;48.374;10.876;2023-04-01T00:23:13;9.00;99.90
27896;DHT22;15241;48.374;10.876;2023-04-01T00:28:12;9.00;99.90
27896;DHT22;15241;48.374;10.876;2023-04-01T00:33:11;9.10;99.90
27896;DHT22;15241;48.374;10.876;2023-04-01T00:38:10;9.10;99.90
27896;DHT22;15241;48.374;10.876;2023-04-01T00:43:15;9.00;99.90
27896;DHT22;15241;48.374;10.876;2023-04-01T00:48:17;9.10;99.90
27896;DHT22;15241;48.374;10.876;2023-04-01T00:53:18;9.00;99.90
27896;DHT22;15241;48.374;10.876;2023-04-01T00:58:20;8.90;99.90
27896;DHT22;15241;48.374;10.876;2023-04-01T01:03:20;9.00;99.90
27896;DHT22;15241;48.374;10.876;2023-04-01T01:08:22;8.90;99.90
27896;DHT22;15241;48.374;10.876;2023-04-01T01:13:24;9.00;99.90
27896;DHT22;15241;48.374;10.876;2023-04-01T01:18:26;9.00;99.90
27896;DHT22;15241;48.374;10.876;2023-04-01T01:29:01;9.00;99.90
27896;DHT22;15241;48.374;10.876;2023-04-01T01:34:07;8.90;99.90
27896;DHT22;15241;48.374;10.876;2023-04-01T01:39:08;8.80;99.90
27896;DHT22;15241;48.374;10.876;2023-04-01T01:44:09;8.90;99.90
27896;DHT22;15241;48.374;10.876;2023-04-01T01:49:11;8.80;99.90
27896;DHT22;15241;48.374;10.876;2023-04-01T01:54:14;8.80;99.90
27896;DHT22;15241;48.374;10.876;2023-04-01T01:59:14;8.70;99.90
27896;DHT22;15241;48.374;10.876;2023-04-01T02:04:15;8.70;99.90
27896;DHT22;15241;48.374;10.876;2023-04-01T02:09:15;8.60;99.90
27896;DHT22;15241;48.374;10.876;2023-04-01T02:14:16;8.60;99.90
27896;DHT22;15241;48.374;10.876;2023-04-01T02:19:17;8.50;99.90
27896;DHT22;15241;48.374;10.876;2023-04-01T02:29:26;8.50;99.90
27896;DHT22;15241;48.374;10.876;2023-04-01T02:34:26;8.50;99.90
27896;DHT22;15241;48.374;10.876;2023-04-01T02:39:25;8.40;99.90
27896;DHT22;15241;48.374;10.876;2023-04-01T02:44:24;8.40;99.90
27896;DHT22;15241;48.374;10.876;2023-04-01T02:49:23;8.40;99.90
27896;DHT22;15241;48.374;10.876;2023-04-01T02:54:22;8.40;99.90
27896;DHT22;15241;48.374;10.876;2023-04-01T02:59:21;8.30;99.90
27896;DHT22;15241;48.374;10.876;2023-04-01T03:04:20;8.20;99.90
27896;DHT22;15241;48.374;10.876;2023-04-01T03:09:19;8.20;99.90
27896;DHT22;15241;48.374;10.876;2023-04-01T03:14:18;8.10;99.90
27896;DHT22;15241;48.374;10.876;2023-04-01T03:19:17;7.90;99.90
27896;DHT22;15241;48.374;10.876;2023-04-01T03:24:16;8.00;99.90
27896;DHT22;15241;48.374;10.876;2023-04-01T03:29:15;8.00;99.90
27896;DHT22;15241;48.374;10.876;2023-04-01T03:34:14;8.00;99.90
27896;DHT22;15241;48.374;10.876;2023-04-01T03:39:12;8.10;99.90
27896;DHT22;15241;48.374;10.876;2023-04-01T03:44:11;8.10;99.90
27896;DHT22;15241;48.374;10.876;2023-04-01T03:49:11;8.00;99.90
27896;DHT22;15241;48.374;10.876;2023-04-01T03:54:10;8.00;99.90
27896;DHT22;15241;48.374;10.876;2023-04-01T03:59:10;8.00;99.90
27896;DHT22;15241;48.374;10.876;2023-04-01T04:04:12;8.10;99.90
27896;DHT22;15241;48.374;10.876;2023-04-01T04:09:11;8.20;99.90
27896;DHT22;15241;48.374;10.876;2023-04-01T04:14:10;8.00;99.90
27896;DHT22;15241;48.374;10.876;2023-04-01T04:19:09;8.10;99.90
27896;DHT22;15241;48.374;10.876;2023-04-01T04:24:08;8.10;99.90
27896;DHT22;15241;48.374;10.876;2023-04-01T04:29:07;8.00;99.90
27896;DHT22;15241;48.374;10.876;2023-04-01T04:34:06;8.10;99.90
27896;DHT22;15241;48.374;10.876;2023-04-01T04:39:05;8.10;99.90
27896;DHT22;15241;48.374;10.876;2023-04-01T04:44:05;8.00;99.90
27896;DHT22;15241;48.374;10.876;2023-04-01T04:49:04;8.10;99.90
27896;DHT22;15241;48.374;10.876;2023-04-01T04:54:04;8.10;99.90
27896;DHT22;15241;48.374;10.876;2023-04-01T04:59:05;8.10;99.90
27896;DHT22;15241;48.374;10.876;2023-04-01T05:04:04;8.10;99.90
27896;DHT22;15241;48.374;10.876;2023-04-01T05:09:03;8.10;99.90
27896;DHT22;15241;48.374;10.876;2023-04-01T05:14:02;8.20;99.90
27896;DHT22;15241;48.374;10.876;2023-04-01T05:19:01;8.20;99.90
27896;DHT22;15241;48.374;10.876;2023-04-01T05:24:00;8.20;99.90
27896;DHT22;15241;48.374;10.876;2023-04-01T05:28:59;8.30;99.90
27896;DHT22;15241;48.374;10.876;2023-04-01T05:33:58;8.40;99.90
27896;DHT22;15241;48.374;10.876;2023-04-01T05:38:57;8.40;99.90
27896;DHT22;15241;48.374;10.876;2023-04-01T05:43:56;8.40;99.90
27896;DHT22;15241;48.374;10.876;2023-04-01T05:48:55;8.40;99.90
27896;DHT22;15241;48.374;10.876;2023-04-01T05:53:56;8.40;99.90
27896;DHT22;15241;48.374;10.876;2023-04-01T05:58:55;8.50;99.90
27896;DHT22;15241;48.374;10.876;2023-04-01T06:03:54;8.40;99.90
27896;DHT22;15241;48.374;10.876;2023-04-01T06:08:53;8.60;99.90
27896;DHT22;15241;48.374;10.876;2023-04-01T06:14:07;8.70;99.90
27896;DHT22;15241;48.374;10.876;2023-04-01T06:19:17;8.70;99.90
27896;DHT22;15241;48.374;10.876;2023-04-01T06:29:54;8.90;99.90
27896;DHT22;15241;48.374;10.876;2023-04-01T06:35:05;8.90;99.90
27896;DHT22;15241;48.374;10.876;2023-04-01T06:40:15;9.10;99.90
27896;DHT22;15241;48.374;10.876;2023-04-01T06:45:24;9.30;99.90
27896;DHT22;15241;48.374;10.876;2023-04-01T06:50:26;9.40;99.90
27896;DHT22;15241;48.374;10.876;2023-04-01T06:55:29;9.40;99.90
27896;DHT22;15241;48.374;10.876;2023-04-01T07:05:38;9.50;99.90
27896;DHT22;15241;48.374;10.876;2023-04-01T07:10:41;9.70;99.90
27896;DHT22;15241;48.374;10.876;2023-04-01T07:15:41;9.90;99.90
27896;DHT22;15241;48.374;10.876;2023-04-01T07:20:40;10.10;99.90
27896;DHT22;15241;48.374;10.876;2023-04-01T07:25:41;10.00;99.90
27896;DHT22;15241;48.374;10.876;2023-04-01T07:30:47;10.20;99.90
27896;DHT22;15241;48.374;10.876;2023-04-01T07:35:49;10.40;99.90
27896;DHT22;15241;48.374;10.876;2023-04-01T07:46:06;10.40;99.90
27896;DHT22;15241;48.374;10.876;2023-04-01T07:51:07;10.40;99.90
27896;DHT22;15241;48.374;10.876;2023-04-01T07:56:10;10.40;99.90
27896;DHT22;15241;48.374;10.876;2023-04-01T08:01:13;10.20;99.90
27896;DHT22;15241;48.374;10.876;2023-04-01T08:06:16;10.20;99.90
27896;DHT22;15241;48.374;10.876;2023-04-01T08:16:31;10.50;99.90
27896;DHT22;15241;48.374;10.876;2023-04-01T08:21:35;10.60;99.90
27896;DHT22;15241;48.374;10.876;2023-04-01T08:26:36;10.80;99.90
27896;DHT22;15241;48.374;10.876;2023-04-01T08:31:38;11.20;99.90
27896;DHT22;15241;48.374;10.876;2023-04-01T08:36:40;11.20;99.90
27896;DHT22;15241;48.374;10.876;2023-04-01T08:42:00;11.30;99.90
27896;DHT22;15241;48.374;10.876;2023-04-01T08:47:26;11.50;99.90
27896;DHT22;15241;48.374;10.876;2023-04-01T08:58:07;11.30;99.90
27896;DHT22;15241;48.374;10.876;2023-04-01T09:19:58;11.90;99.90
27896;DHT22;15241;48.374;10.876;2023-04-01T09:30:43;12.40;99.90
27896;DHT22;15241;48.374;10.876;2023-04-01T09:35:47;12.30;99.90
27896;DHT22;15241;48.374;10.876;2023-04-01T09:40:46;12.70;99.90
27896;DHT22;15241;48.374;10.876;2023-04-01T09:45:53;12.40;99.90
27896;DHT22;15241;48.374;10.876;2023-04-01T09:50:58;12.60;99.90
27896;DHT22;15241;48.374;10.876;2023-04-01T10:01:44;12.00;99.90
27896;DHT22;15241;48.374;10.876;2023-04-01T10:07:06;12.00;99.90
27896;DHT22;15241;48.374;10.876;2023-04-01T10:12:25;12.30;99.90
27896;DHT22;15241;48.374;10.876;2023-04-01T10:34:32;11.80;99.90
27896;DHT22;15241;48.374;10.876;2023-04-01T10:39:39;11.40;99.90
27896;DHT22;15241;48.374;10.876;2023-04-01T10:50:30;10.90;99.90
27896;DHT22;15241;48.374;10.876;2023-04-01T10:55:50;10.60;99.90
27896;DHT22;15241;48.374;10.876;2023-04-01T11:01:13;10.20;99.90
27896;DHT22;15241;48.374;10.876;2023-04-01T11:12:12;9.80;99.90
27896;DHT22;15241;48.374;10.876;2023-04-01T11:22:33;9.90;99.90
27896;DHT22;15241;48.374;10.876;2023-04-01T11:28:01;9.70;99.90
27896;DHT22;15241;48.374;10.876;2023-04-01T11:33:03;9.70;99.90
27896;DHT22;15241;48.374;10.876;2023-04-01T11:38:14;9.60;99.90
27896;DHT22;15241;48.374;10.876;2023-04-01T11:43:16;9.70;99.90
27896;DHT22;15241;48.374;10.876;2023-04-01T11:48:28;9.60;99.90
27896;DHT22;15241;48.374;10.876;2023-04-01T11:53:35;9.60;99.90
27896;DHT22;15241;48.374;10.876;2023-04-01T12:09:36;10.00;99.90
27896;DHT22;15241;48.374;10.876;2023-04-01T12:14:39;10.10;99.90
27896;DHT22;15241;48.374;10.876;2023-04-01T12:19:43;10.10;99.90
27896;DHT22;15241;48.374;10.876;2023-04-01T12:24:47;10.10;99.90
27896;DHT22;15241;48.374;10.876;2023-04-01T12:29:58;10.10;99.90
27896;DHT22;15241;48.374;10.876;2023-04-01T12:35:14;10.20;99.90
27896;DHT22;15241;48.374;10.876;2023-04-01T12:40:39;10.40;99.90
27896;DHT22;15241;48.374;10.876;2023-04-01T12:56:39;10.30;99.90
27896;DHT22;15241;48.374;10.876;2023-04-01T13:02:02;10.60;99.90
27896;DHT22;15241;48.374;10.876;2023-04-01T13:07:23;11.00;99.90
27896;DHT22;15241;48.374;10.876;2023-04-01T13:12:47;11.00;99.90
27896;DHT22;15241;48.374;10.876;2023-04-01T13:23:03;11.30;99.90
27896;DHT22;15241;48.374;10.876;2023-04-01T13:28:05;11.10;99.90
27896;DHT22;15241;48.374;10.876;2023-04-01T13:33:10;11.20;99.90
27896;DHT22;15241;48.374;10.876;2023-04-01T13:38:20;11.30;99.90
27896;DHT22;15241;48.374;10.876;2023-04-01T13:43:21;11.50;99.90
27896;DHT22;15241;48.374;10.876;2023-04-01T13:48:43;11.50;99.90
27896;DHT22;15241;48.374;10.876;2023-04-01T13:59:39;12.00;99.90
27896;DHT22;15241;48.374;10.876;2023-04-01T14:10:28;12.90;99.90
27896;DHT22;15241;48.374;10.876;2023-04-01T14:15:45;13.60;99.90
27896;DHT22;15241;48.374;10.876;2023-04-01T14:20:46;13.90;99.90
27896;DHT22;15241;48.374;10.876;2023-04-01T14:26:03;13.50;99.90
27896;DHT22;15241;48.374;10.876;2023-04-01T14:31:20;13.10;99.90
27896;DHT22;15241;48.374;10.876;2023-04-01T14:41:51;12.40;99.90
27896;DHT22;15241;48.374;10.876;2023-04-01T14:52:27;12.40;99.90
27896;DHT22;15241;48.374;10.876;2023-04-01T14:57:27;13.20;99.90
27896;DHT22;15241;48.374;10.876;2023-04-01T15:02:46;13.30;99.90
27896;DHT22;15241;48.374;10.876;2023-04-01T15:08:06;14.70;99.90
27896;DHT22;15241;48.374;10.876;2023-04-01T15:13:11;15.40;99.90
27896;DHT22;15241;48.374;10.876;2023-04-01T15:18:13;16.00;99.90
27896;DHT22;15241;48.374;10.876;2023-04-01T15:23:19;14.90;99.90
27896;DHT22;15241;48.374;10.876;2023-04-01T15:28:26;14.30;99.90
27896;DHT22;15241;48.374;10.876;2023-04-01T15:43:59;13.40;99.90
27896;DHT22;15241;48.374;10.876;2023-04-01T15:49:15;13.00;99.90
27896;DHT22;15241;48.374;10.876;2023-04-01T16:00:13;12.50;99.90
27896;DHT22;15241;48.374;10.876;2023-04-01T16:05:35;12.40;99.90
27896;DHT22;15241;48.374;10.876;2023-04-01T16:10:46;12.30;99.90
27896;DHT22;15241;48.374;10.876;2023-04-01T16:15:49;12.10;99.90
27896;DHT22;15241;48.374;10.876;2023-04-01T16:20:51;11.90;99.90
27896;DHT22;15241;48.374;10.876;2023-04-01T16:25:54;11.60;99.90
27896;DHT22;15241;48.374;10.876;2023-04-01T16:30:59;11.50;99.90
27896;DHT22;15241;48.374;10.876;2023-04-01T16:36:04;11.40;99.90
27896;DHT22;15241;48.374;10.876;2023-04-01T16:41:07;11.30;99.90
27896;DHT22;15241;48.374;10.876;2023-04-01T16:46:26;11.20;99.90
27896;DHT22;15241;48.374;10.876;2023-04-01T16:51:32;11.20;99.90
27896;DHT22;15241;48.374;10.876;2023-04-01T16:56:40;11.10;99.90
27896;DHT22;15241;48.374;10.876;2023-04-01T17:01:43;11.00;99.90
27896;DHT22;15241;48.374;10.876;2023-04-01T17:06:44;10.80;99.90
27896;DHT22;15241;48.374;10.876;2023-04-01T17:11:47;10.80;99.90
27896;DHT22;15241;48.374;10.876;2023-04-01T17:17:09;10.60;99.90
27896;DHT22;15241;48.374;10.876;2023-04-01T17:27:30;10.40;99.90
27896;DHT22;15241;48.374;10.876;2023-04-01T17:32:36;10.50;99.90
27896;DHT22;15241;48.374;10.876;2023-04-01T17:37:43;10.40;99.90
27896;DHT22;15241;48.374;10.876;2023-04-01T17:42:46;10.30;99.90
27896;DHT22;15241;48.374;10.876;2023-04-01T17:48:05;10.20;99.90
27896;DHT22;15241;48.374;10.876;2023-04-01T17:53:28;10.20;99.90
27896;DHT22;15241;48.374;10.876;2023-04-01T17:58:33;10.10;99.90
27896;DHT22;15241;48.374;10.876;2023-04-01T18:03:57;10.20;99.90
27896;DHT22;15241;48.374;10.876;2023-04-01T18:09:00;10.10;99.90
27896;DHT22;15241;48.374;10.876;2023-04-01T18:19:32;10.10;99.90
27896;DHT22;15241;48.374;10.876;2023-04-01T18:24:31;10.00;99.90
27896;DHT22;15241;48.374;10.876;2023-04-01T18:29:36;9.90;99.90
27896;DHT22;15241;48.374;10.876;2023-04-01T18:34:43;9.90;99.90
27896;DHT22;15241;48.374;10.876;2023-04-01T18:39:46;9.80;99.90
27896;DHT22;15241;48.374;10.876;2023-04-01T18:44:48;9.90;99.90
27896;DHT22;15241;48.374;10.876;2023-04-01T18:49:54;9.80;99.90
27896;DHT22;15241;48.374;10.876;2023-04-01T19:05:30;9.90;99.90
27896;DHT22;15241;48.374;10.876;2023-04-01T19:15:43;9.90;99.90
27896;DHT22;15241;48.374;10.876;2023-04-01T19:20:41;9.90;99.90
27896;DHT22;15241;48.374;10.876;2023-04-01T19:25:43;9.90;99.90
27896;DHT22;15241;48.374;10.876;2023-04-01T19:36:00;9.80;99.90
27896;DHT22;15241;48.374;10.876;2023-04-01T19:41:02;9.80;99.90
27896;DHT22;15241;48.374;10.876;2023-04-01T19:46:06;9.70;99.90
27896;DHT22;15241;48.374;10.876;2023-04-01T19:51:09;9.70;99.90
27896;DHT22;15241;48.374;10.876;2023-04-01T19:56:13;9.60;99.90
27896;DHT22;15241;48.374;10.876;2023-04-01T20:01:18;9.60;99.90
27896;DHT22;15241;48.374;10.876;2023-04-01T20:06:22;9.70;99.90
27896;DHT22;15241;48.374;10.876;2023-04-01T20:11:33;9.70;99.90
27896;DHT22;15241;48.374;10.876;2023-04-01T20:22:29;9.60;99.90
27896;DHT22;15241;48.374;10.876;2023-04-01T20:27:35;9.60;99.90
27896;DHT22;15241;48.374;10.876;2023-04-01T20:32:41;9.50;99.90
27896;DHT22;15241;48.374;10.876;2023-04-01T20:37:46;9.50;99.90
27896;DHT22;15241;48.374;10.876;2023-04-01T20:54:10;9.30;99.90
27896;DHT22;15241;48.374;10.876;2023-04-01T20:59:36;9.30;99.90
27896;DHT22;15241;48.374;10.876;2023-04-01T21:04:40;9.30;99.90
27896;DHT22;15241;48.374;10.876;2023-04-01T21:09:46;9.30;99.90
27896;DHT22;15241;48.374;10.876;2023-04-01T21:15:04;9.20;99.90
27896;DHT22;15241;48.374;10.876;2023-04-01T21:20:18;9.20;99.90
27896;DHT22;15241;48.374;10.876;2023-04-01T21:25:27;9.20;99.90
27896;DHT22;15241;48.374;10.876;2023-04-01T21:30:35;9.40;99.90
27896;DHT22;15241;48.374;10.876;2023-04-01T21:35:37;9.30;99.90
27896;DHT22;15241;48.374;10.876;2023-04-01T21:52:26;9.20;99.90
27896;DHT22;15241;48.374;10.876;2023-04-01T22:03:22;9.00;99.90
27896;DHT22;15241;48.374;10.876;2023-04-01T22:08:43;9.00;99.90
27896;DHT22;15241;48.374;10.876;2023-04-01T22:18:55;8.80;99.90
27896;DHT22;15241;48.374;10.876;2023-04-01T22:23:59;8.90;99.90
27896;DHT22;15241;48.374;10.876;2023-04-01T22:29:00;8.80;99.90
27896;DHT22;15241;48.374;10.876;2023-04-01T22:34:04;8.80;99.90
27896;DHT22;15241;48.374;10.876;2023-04-01T22:44:33;8.60;99.90
27896;DHT22;15241;48.374;10.876;2023-04-01T22:49:36;8.60;99.90
27896;DHT22;15241;48.374;10.876;2023-04-01T22:54:39;8.60;99.90
27896;DHT22;15241;48.374;10.876;2023-04-01T22:59:42;8.50;99.90
27896;DHT22;15241;48.374;10.876;2023-04-01T23:09:51;8.50;99.90
27896;DHT22;15241;48.374;10.876;2023-04-01T23:14:52;8.60;99.90
27896;DHT22;15241;48.374;10.876;2023-04-01T23:19:54;8.50;99.90
27896;DHT22;15241;48.374;10.876;2023-04-01T23:24:57;8.60;99.90
27896;DHT22;15241;48.374;10.876;2023-04-01T23:29:56;8.60;99.90
27896;DHT22;15241;48.374;10.876;2023-04-01T23:34:56;8.60;99.90
27896;DHT22;15241;48.374;10.876;2023-04-01T23:39:57;8.60;99.90
27896;DHT22;15241;48.374;10.876;2023-04-01T23:44:58;8.60;99.90
27896;DHT22;15241;48.374;10.876;2023-04-01T23:49:59;8.60;99.90
27896;DHT22;15241;48.374;10.876;2023-04-01T23:55:02;8.60;99.90
